sensor_id;sensor_type;location;lat;lon;timestamp;P1;durP1;ratioP1;P2;durP2;ratioP2
3941;SDS011;1985;48.592;8.850;2023-11-21T00:01:35;12.13;;;4.13;;
3941;SDS011;1985;48.592;8.850;2023-11-21T00:04:02;18.83;;;4.90;;
3941;SDS011;1985;48.592;8.850;2023-11-21T00:06:27;15.27;;;4.40;;
3941;SDS011;1985;48.592;8.850;2023-11-21T00:08:55;16.88;;;4.38;;
3941;SDS011;1985;48.592;8.850;2023-11-21T00:11:20;14.95;;;3.72;;
3941;SDS011;1985;48.592;8.850;2023-11-21T00:13:46;16.58;;;4.00;;
3941;SDS011;1985;48.592;8.850;2023-11-21T00:16:12;18.00;;;3.70;;
3941;SDS011;1985;48.592;8.850;2023-11-21T00:18:38;13.60;;;3.03;;
3941;SDS011;1985;48.592;8.850;2023-11-21T00:21:04;13.77;;;2.90;;
3941;SDS011;1985;48.592;8.850;2023-11-21T00:23:30;14.23;;;3.22;;
3941;SDS011;1985;48.592;8.850;2023-11-21T00:25:56;17.43;;;4.10;;
3941;SDS011;1985;48.592;8.850;2023-11-21T00:28:22;10.80;;;3.45;;
3941;SDS011;1985;48.592;8.850;2023-11-21T00:30:47;13.30;;;3.40;;
3941;SDS011;1985;48.592;8.850;2023-11-21T00:33:13;11.97;;;2.90;;
3941;SDS011;1985;48.592;8.850;2023-11-21T00:35:39;16.83;;;3.37;;
3941;SDS011;1985;48.592;8.850;2023-11-21T00:38:04;15.47;;;3.47;;
3941;SDS011;1985;48.592;8.850;2023-11-21T00:40:30;15.70;;;3.90;;
3941;SDS011;1985;48.592;8.850;2023-11-21T00:42:56;15.90;;;3.80;;
3941;SDS011;1985;48.592;8.850;2023-11-21T00:45:21;15.80;;;3.25;;
3941;SDS011;1985;48.592;8.850;2023-11-21T00:47:47;14.90;;;3.50;;
3941;SDS011;1985;48.592;8.850;2023-11-21T00:50:13;13.65;;;3.60;;
3941;SDS011;1985;48.592;8.850;2023-11-21T00:52:38;15.68;;;3.42;;
3941;SDS011;1985;48.592;8.850;2023-11-21T00:55:05;12.40;;;2.77;;
3941;SDS011;1985;48.592;8.850;2023-11-21T00:57:32;16.05;;;3.13;;
3941;SDS011;1985;48.592;8.850;2023-11-21T00:59:58;10.18;;;2.63;;
3941;SDS011;1985;48.592;8.850;2023-11-21T01:02:24;12.40;;;2.70;;
3941;SDS011;1985;48.592;8.850;2023-11-21T01:04:50;10.40;;;2.78;;
3941;SDS011;1985;48.592;8.850;2023-11-21T01:07:16;12.65;;;2.72;;
3941;SDS011;1985;48.592;8.850;2023-11-21T01:09:45;13.55;;;3.00;;
3941;SDS011;1985;48.592;8.850;2023-11-21T01:12:11;11.00;;;2.90;;
3941;SDS011;1985;48.592;8.850;2023-11-21T01:14:36;14.00;;;2.60;;
3941;SDS011;1985;48.592;8.850;2023-11-21T01:17:02;10.40;;;2.50;;
3941;SDS011;1985;48.592;8.850;2023-11-21T01:19:29;15.55;;;2.78;;
3941;SDS011;1985;48.592;8.850;2023-11-21T01:21:55;13.63;;;2.90;;
3941;SDS011;1985;48.592;8.850;2023-11-21T01:24:22;11.98;;;2.80;;
3941;SDS011;1985;48.592;8.850;2023-11-21T01:26:48;14.70;;;2.80;;
3941;SDS011;1985;48.592;8.850;2023-11-21T01:29:14;10.27;;;1.90;;
3941;SDS011;1985;48.592;8.850;2023-11-21T01:31:40;11.60;;;2.88;;
3941;SDS011;1985;48.592;8.850;2023-11-21T01:34:06;12.07;;;2.60;;
3941;SDS011;1985;48.592;8.850;2023-11-21T01:36:32;8.77;;;1.88;;
3941;SDS011;1985;48.592;8.850;2023-11-21T01:38:58;10.93;;;1.98;;
3941;SDS011;1985;48.592;8.850;2023-11-21T01:41:28;20.10;;;2.67;;
3941;SDS011;1985;48.592;8.850;2023-11-21T01:43:54;10.20;;;2.17;;
3941;SDS011;1985;48.592;8.850;2023-11-21T01:46:20;13.60;;;1.90;;
3941;SDS011;1985;48.592;8.850;2023-11-21T01:48:48;9.63;;;2.30;;
3941;SDS011;1985;48.592;8.850;2023-11-21T01:51:14;10.75;;;2.40;;
3941;SDS011;1985;48.592;8.850;2023-11-21T01:53:41;11.88;;;1.90;;
3941;SDS011;1985;48.592;8.850;2023-11-21T01:56:06;10.23;;;2.30;;
3941;SDS011;1985;48.592;8.850;2023-11-21T01:58:33;14.05;;;2.40;;
3941;SDS011;1985;48.592;8.850;2023-11-21T02:00:59;8.63;;;2.00;;
3941;SDS011;1985;48.592;8.850;2023-11-21T02:03:25;11.70;;;2.20;;
3941;SDS011;1985;48.592;8.850;2023-11-21T02:05:51;14.35;;;2.60;;
3941;SDS011;1985;48.592;8.850;2023-11-21T02:08:18;8.95;;;2.20;;
3941;SDS011;1985;48.592;8.850;2023-11-21T02:10:44;13.68;;;2.10;;
3941;SDS011;1985;48.592;8.850;2023-11-21T02:13:10;8.40;;;2.10;;
3941;SDS011;1985;48.592;8.850;2023-11-21T02:15:36;9.52;;;1.88;;
3941;SDS011;1985;48.592;8.850;2023-11-21T02:18:03;10.20;;;1.75;;
3941;SDS011;1985;48.592;8.850;2023-11-21T02:20:30;8.48;;;1.50;;
3941;SDS011;1985;48.592;8.850;2023-11-21T02:22:59;8.70;;;1.60;;
3941;SDS011;1985;48.592;8.850;2023-11-21T02:25:29;10.85;;;2.00;;
3941;SDS011;1985;48.592;8.850;2023-11-21T02:27:56;7.80;;;1.50;;
3941;SDS011;1985;48.592;8.850;2023-11-21T02:30:23;8.90;;;1.80;;
3941;SDS011;1985;48.592;8.850;2023-11-21T02:32:50;9.48;;;1.50;;
3941;SDS011;1985;48.592;8.850;2023-11-21T02:35:18;11.03;;;1.90;;
3941;SDS011;1985;48.592;8.850;2023-11-21T02:37:46;10.30;;;1.52;;
3941;SDS011;1985;48.592;8.850;2023-11-21T02:40:14;8.10;;;1.30;;
3941;SDS011;1985;48.592;8.850;2023-11-21T02:42:43;9.95;;;1.38;;
3941;SDS011;1985;48.592;8.850;2023-11-21T02:45:12;8.25;;;1.27;;
3941;SDS011;1985;48.592;8.850;2023-11-21T02:47:41;7.60;;;1.90;;
3941;SDS011;1985;48.592;8.850;2023-11-21T02:50:08;7.30;;;1.50;;
3941;SDS011;1985;48.592;8.850;2023-11-21T02:52:34;8.10;;;1.50;;
3941;SDS011;1985;48.592;8.850;2023-11-21T02:55:00;8.85;;;1.48;;
3941;SDS011;1985;48.592;8.850;2023-11-21T02:57:29;10.15;;;2.60;;
3941;SDS011;1985;48.592;8.850;2023-11-21T02:59:55;8.68;;;1.60;;
3941;SDS011;1985;48.592;8.850;2023-11-21T03:02:21;9.00;;;1.90;;
3941;SDS011;1985;48.592;8.850;2023-11-21T03:04:47;8.47;;;1.37;;
3941;SDS011;1985;48.592;8.850;2023-11-21T03:07:16;10.43;;;1.70;;
3941;SDS011;1985;48.592;8.850;2023-11-21T03:09:42;11.50;;;1.80;;
3941;SDS011;1985;48.592;8.850;2023-11-21T03:12:07;9.50;;;1.50;;
3941;SDS011;1985;48.592;8.850;2023-11-21T03:14:34;8.50;;;1.60;;
3941;SDS011;1985;48.592;8.850;2023-11-21T03:17:00;7.90;;;1.60;;
3941;SDS011;1985;48.592;8.850;2023-11-21T03:19:26;7.57;;;1.40;;
3941;SDS011;1985;48.592;8.850;2023-11-21T03:21:51;9.70;;;1.70;;
3941;SDS011;1985;48.592;8.850;2023-11-21T03:24:18;7.53;;;1.50;;
3941;SDS011;1985;48.592;8.850;2023-11-21T03:26:45;7.57;;;1.60;;
3941;SDS011;1985;48.592;8.850;2023-11-21T03:29:11;8.40;;;1.60;;
3941;SDS011;1985;48.592;8.850;2023-11-21T03:31:37;8.32;;;2.10;;
3941;SDS011;1985;48.592;8.850;2023-11-21T03:34:03;8.17;;;1.40;;
3941;SDS011;1985;48.592;8.850;2023-11-21T03:36:29;8.47;;;1.47;;
3941;SDS011;1985;48.592;8.850;2023-11-21T03:38:54;8.10;;;1.30;;
3941;SDS011;1985;48.592;8.850;2023-11-21T03:41:20;8.38;;;1.00;;
3941;SDS011;1985;48.592;8.850;2023-11-21T03:43:46;8.13;;;1.30;;
3941;SDS011;1985;48.592;8.850;2023-11-21T03:46:12;6.70;;;1.00;;
3941;SDS011;1985;48.592;8.850;2023-11-21T03:48:37;9.10;;;1.10;;
3941;SDS011;1985;48.592;8.850;2023-11-21T03:51:03;7.32;;;1.00;;
3941;SDS011;1985;48.592;8.850;2023-11-21T03:53:29;7.07;;;1.10;;
3941;SDS011;1985;48.592;8.850;2023-11-21T03:55:55;9.50;;;1.27;;
3941;SDS011;1985;48.592;8.850;2023-11-21T03:58:20;6.90;;;1.10;;
3941;SDS011;1985;48.592;8.850;2023-11-21T04:00:46;8.30;;;1.20;;
3941;SDS011;1985;48.592;8.850;2023-11-21T04:03:14;8.80;;;1.20;;
3941;SDS011;1985;48.592;8.850;2023-11-21T04:05:40;6.90;;;1.00;;
3941;SDS011;1985;48.592;8.850;2023-11-21T04:08:06;6.90;;;1.00;;
3941;SDS011;1985;48.592;8.850;2023-11-21T04:10:32;7.90;;;1.30;;
3941;SDS011;1985;48.592;8.850;2023-11-21T04:12:57;7.10;;;1.10;;
3941;SDS011;1985;48.592;8.850;2023-11-21T04:15:23;7.93;;;1.00;;
3941;SDS011;1985;48.592;8.850;2023-11-21T04:17:49;8.20;;;0.90;;
3941;SDS011;1985;48.592;8.850;2023-11-21T04:20:14;6.90;;;1.10;;
3941;SDS011;1985;48.592;8.850;2023-11-21T04:22:40;8.10;;;1.00;;
3941;SDS011;1985;48.592;8.850;2023-11-21T04:25:13;9.80;;;1.45;;
3941;SDS011;1985;48.592;8.850;2023-11-21T04:27:40;6.60;;;1.10;;
3941;SDS011;1985;48.592;8.850;2023-11-21T04:30:08;11.90;;;1.10;;
3941;SDS011;1985;48.592;8.850;2023-11-21T04:32:37;6.40;;;0.98;;
3941;SDS011;1985;48.592;8.850;2023-11-21T04:35:04;8.07;;;1.23;;
3941;SDS011;1985;48.592;8.850;2023-11-21T04:37:30;6.90;;;1.13;;
3941;SDS011;1985;48.592;8.850;2023-11-21T04:39:56;7.25;;;1.20;;
3941;SDS011;1985;48.592;8.850;2023-11-21T04:42:21;7.70;;;1.40;;
3941;SDS011;1985;48.592;8.850;2023-11-21T04:44:47;8.40;;;1.40;;
3941;SDS011;1985;48.592;8.850;2023-11-21T04:47:13;7.05;;;1.10;;
3941;SDS011;1985;48.592;8.850;2023-11-21T04:49:41;8.80;;;1.27;;
3941;SDS011;1985;48.592;8.850;2023-11-21T04:52:08;7.40;;;1.20;;
3941;SDS011;1985;48.592;8.850;2023-11-21T04:54:35;9.03;;;1.20;;
3941;SDS011;1985;48.592;8.850;2023-11-21T04:57:00;10.80;;;1.40;;
3941;SDS011;1985;48.592;8.850;2023-11-21T04:59:26;6.70;;;1.10;;
3941;SDS011;1985;48.592;8.850;2023-11-21T05:01:52;6.60;;;0.93;;
3941;SDS011;1985;48.592;8.850;2023-11-21T05:04:21;8.73;;;1.30;;
3941;SDS011;1985;48.592;8.850;2023-11-21T05:06:47;8.00;;;1.23;;
3941;SDS011;1985;48.592;8.850;2023-11-21T05:09:13;7.20;;;1.30;;
3941;SDS011;1985;48.592;8.850;2023-11-21T05:11:40;8.20;;;1.50;;
3941;SDS011;1985;48.592;8.850;2023-11-21T05:14:06;8.80;;;1.40;;
3941;SDS011;1985;48.592;8.850;2023-11-21T05:16:32;7.00;;;1.40;;
3941;SDS011;1985;48.592;8.850;2023-11-21T05:18:58;7.20;;;1.50;;
3941;SDS011;1985;48.592;8.850;2023-11-21T05:21:26;8.38;;;1.85;;
3941;SDS011;1985;48.592;8.850;2023-11-21T05:23:52;9.75;;;1.75;;
3941;SDS011;1985;48.592;8.850;2023-11-21T05:26:17;6.97;;;1.50;;
3941;SDS011;1985;48.592;8.850;2023-11-21T05:28:43;8.40;;;2.00;;
3941;SDS011;1985;48.592;8.850;2023-11-21T05:31:09;8.68;;;1.40;;
3941;SDS011;1985;48.592;8.850;2023-11-21T05:33:35;10.03;;;1.70;;
3941;SDS011;1985;48.592;8.850;2023-11-21T05:36:01;10.00;;;1.73;;
3941;SDS011;1985;48.592;8.850;2023-11-21T05:38:27;7.60;;;1.50;;
3941;SDS011;1985;48.592;8.850;2023-11-21T05:40:53;11.15;;;2.50;;
3941;SDS011;1985;48.592;8.850;2023-11-21T05:43:19;10.75;;;2.70;;
3941;SDS011;1985;48.592;8.850;2023-11-21T05:45:45;12.25;;;2.70;;
3941;SDS011;1985;48.592;8.850;2023-11-21T05:48:10;13.10;;;2.90;;
3941;SDS011;1985;48.592;8.850;2023-11-21T05:50:36;9.60;;;2.80;;
3941;SDS011;1985;48.592;8.850;2023-11-21T05:53:03;10.20;;;2.70;;
3941;SDS011;1985;48.592;8.850;2023-11-21T05:55:29;8.27;;;2.10;;
3941;SDS011;1985;48.592;8.850;2023-11-21T05:57:54;39.78;;;3.97;;
3941;SDS011;1985;48.592;8.850;2023-11-21T06:00:20;41.30;;;4.00;;
3941;SDS011;1985;48.592;8.850;2023-11-21T06:02:51;96.70;;;6.30;;
3941;SDS011;1985;48.592;8.850;2023-11-21T06:05:22;65.97;;;5.32;;
3941;SDS011;1985;48.592;8.850;2023-11-21T06:07:49;45.30;;;5.53;;
3941;SDS011;1985;48.592;8.850;2023-11-21T06:10:16;36.83;;;3.28;;
3941;SDS011;1985;48.592;8.850;2023-11-21T06:12:44;57.47;;;8.88;;
3941;SDS011;1985;48.592;8.850;2023-11-21T06:15:10;24.50;;;2.78;;
3941;SDS011;1985;48.592;8.850;2023-11-21T06:17:38;22.15;;;2.25;;
3941;SDS011;1985;48.592;8.850;2023-11-21T06:20:05;11.75;;;2.50;;
3941;SDS011;1985;48.592;8.850;2023-11-21T06:22:37;9.13;;;2.40;;
3941;SDS011;1985;48.592;8.850;2023-11-21T06:25:04;9.30;;;2.97;;
3941;SDS011;1985;48.592;8.850;2023-11-21T06:27:40;10.10;;;2.80;;
3941;SDS011;1985;48.592;8.850;2023-11-21T06:30:07;15.45;;;4.38;;
3941;SDS011;1985;48.592;8.850;2023-11-21T06:32:34;10.65;;;3.40;;
3941;SDS011;1985;48.592;8.850;2023-11-21T06:35:01;10.27;;;3.53;;
3941;SDS011;1985;48.592;8.850;2023-11-21T06:37:29;11.25;;;3.55;;
3941;SDS011;1985;48.592;8.850;2023-11-21T06:39:55;11.60;;;3.22;;
3941;SDS011;1985;48.592;8.850;2023-11-21T06:42:23;9.57;;;3.30;;
3941;SDS011;1985;48.592;8.850;2023-11-21T06:44:49;12.60;;;3.60;;
3941;SDS011;1985;48.592;8.850;2023-11-21T06:47:22;11.23;;;3.90;;
3941;SDS011;1985;48.592;8.850;2023-11-21T06:49:50;11.13;;;3.42;;
3941;SDS011;1985;48.592;8.850;2023-11-21T06:52:16;11.40;;;3.57;;
3941;SDS011;1985;48.592;8.850;2023-11-21T06:54:43;16.65;;;4.00;;
3941;SDS011;1985;48.592;8.850;2023-11-21T06:57:08;12.13;;;3.83;;
3941;SDS011;1985;48.592;8.850;2023-11-21T06:59:34;10.30;;;2.65;;
3941;SDS011;1985;48.592;8.850;2023-11-21T07:02:00;12.93;;;3.00;;
3941;SDS011;1985;48.592;8.850;2023-11-21T07:04:26;13.10;;;3.30;;
3941;SDS011;1985;48.592;8.850;2023-11-21T07:06:53;14.35;;;3.80;;
3941;SDS011;1985;48.592;8.850;2023-11-21T07:09:19;13.45;;;3.78;;
3941;SDS011;1985;48.592;8.850;2023-11-21T07:11:47;15.90;;;3.20;;
3941;SDS011;1985;48.592;8.850;2023-11-21T07:14:16;10.45;;;2.60;;
3941;SDS011;1985;48.592;8.850;2023-11-21T07:16:44;8.93;;;2.50;;
3941;SDS011;1985;48.592;8.850;2023-11-21T07:19:11;8.15;;;2.10;;
3941;SDS011;1985;48.592;8.850;2023-11-21T07:21:37;8.67;;;2.07;;
3941;SDS011;1985;48.592;8.850;2023-11-21T07:24:07;10.77;;;2.30;;
3941;SDS011;1985;48.592;8.850;2023-11-21T07:26:33;10.60;;;1.80;;
3941;SDS011;1985;48.592;8.850;2023-11-21T07:29:00;10.40;;;2.80;;
3941;SDS011;1985;48.592;8.850;2023-11-21T07:31:27;10.65;;;2.40;;
3941;SDS011;1985;48.592;8.850;2023-11-21T07:33:54;7.97;;;2.30;;
3941;SDS011;1985;48.592;8.850;2023-11-21T07:36:22;9.93;;;2.17;;
3941;SDS011;1985;48.592;8.850;2023-11-21T07:38:48;8.75;;;1.80;;
3941;SDS011;1985;48.592;8.850;2023-11-21T07:41:14;8.07;;;1.80;;
3941;SDS011;1985;48.592;8.850;2023-11-21T07:43:43;8.95;;;2.30;;
3941;SDS011;1985;48.592;8.850;2023-11-21T07:46:09;10.30;;;2.30;;
3941;SDS011;1985;48.592;8.850;2023-11-21T07:48:37;10.98;;;2.78;;
3941;SDS011;1985;48.592;8.850;2023-11-21T07:51:03;10.30;;;2.10;;
3941;SDS011;1985;48.592;8.850;2023-11-21T07:53:29;7.80;;;2.00;;
3941;SDS011;1985;48.592;8.850;2023-11-21T07:55:58;8.23;;;2.20;;
3941;SDS011;1985;48.592;8.850;2023-11-21T07:58:31;8.15;;;2.00;;
3941;SDS011;1985;48.592;8.850;2023-11-21T08:01:00;8.15;;;2.05;;
3941;SDS011;1985;48.592;8.850;2023-11-21T08:03:26;7.55;;;1.80;;
3941;SDS011;1985;48.592;8.850;2023-11-21T08:05:52;8.70;;;1.80;;
3941;SDS011;1985;48.592;8.850;2023-11-21T08:08:18;10.57;;;1.65;;
3941;SDS011;1985;48.592;8.850;2023-11-21T08:10:44;8.63;;;1.80;;
3941;SDS011;1985;48.592;8.850;2023-11-21T08:13:13;8.50;;;2.00;;
3941;SDS011;1985;48.592;8.850;2023-11-21T08:15:41;10.52;;;1.55;;
3941;SDS011;1985;48.592;8.850;2023-11-21T08:18:11;10.10;;;1.80;;
3941;SDS011;1985;48.592;8.850;2023-11-21T08:20:37;8.40;;;1.70;;
3941;SDS011;1985;48.592;8.850;2023-11-21T08:23:04;8.15;;;1.80;;
3941;SDS011;1985;48.592;8.850;2023-11-21T08:25:31;9.00;;;2.67;;
3941;SDS011;1985;48.592;8.850;2023-11-21T08:27:57;7.80;;;1.60;;
3941;SDS011;1985;48.592;8.850;2023-11-21T08:30:24;9.55;;;1.70;;
3941;SDS011;1985;48.592;8.850;2023-11-21T08:32:50;8.30;;;1.50;;
3941;SDS011;1985;48.592;8.850;2023-11-21T08:35:18;10.18;;;1.95;;
3941;SDS011;1985;48.592;8.850;2023-11-21T08:37:44;9.35;;;2.00;;
3941;SDS011;1985;48.592;8.850;2023-11-21T08:40:10;7.60;;;1.80;;
3941;SDS011;1985;48.592;8.850;2023-11-21T08:42:41;9.88;;;1.52;;
3941;SDS011;1985;48.592;8.850;2023-11-21T08:45:08;8.70;;;1.52;;
3941;SDS011;1985;48.592;8.850;2023-11-21T08:47:34;9.60;;;1.50;;
3941;SDS011;1985;48.592;8.850;2023-11-21T08:50:01;7.40;;;1.60;;
3941;SDS011;1985;48.592;8.850;2023-11-21T08:52:27;7.28;;;1.90;;
3941;SDS011;1985;48.592;8.850;2023-11-21T08:54:53;7.50;;;1.40;;
3941;SDS011;1985;48.592;8.850;2023-11-21T08:57:24;9.90;;;1.60;;
3941;SDS011;1985;48.592;8.850;2023-11-21T08:59:50;9.40;;;1.60;;
3941;SDS011;1985;48.592;8.850;2023-11-21T09:02:25;8.10;;;1.73;;
3941;SDS011;1985;48.592;8.850;2023-11-21T09:04:51;7.30;;;1.45;;
3941;SDS011;1985;48.592;8.850;2023-11-21T09:07:18;7.80;;;1.48;;
3941;SDS011;1985;48.592;8.850;2023-11-21T09:09:45;8.73;;;1.83;;
3941;SDS011;1985;48.592;8.850;2023-11-21T09:12:11;8.93;;;1.88;;
3941;SDS011;1985;48.592;8.850;2023-11-21T09:14:37;9.18;;;1.52;;
3941;SDS011;1985;48.592;8.850;2023-11-21T09:17:04;8.60;;;2.00;;
3941;SDS011;1985;48.592;8.850;2023-11-21T09:19:35;10.45;;;2.00;;
3941;SDS011;1985;48.592;8.850;2023-11-21T09:22:02;8.90;;;1.65;;
3941;SDS011;1985;48.592;8.850;2023-11-21T09:24:28;9.27;;;2.05;;
3941;SDS011;1985;48.592;8.850;2023-11-21T09:26:53;7.50;;;1.57;;
3941;SDS011;1985;48.592;8.850;2023-11-21T09:29:19;7.50;;;1.60;;
3941;SDS011;1985;48.592;8.850;2023-11-21T09:31:45;9.43;;;1.90;;
3941;SDS011;1985;48.592;8.850;2023-11-21T09:34:10;9.88;;;1.80;;
3941;SDS011;1985;48.592;8.850;2023-11-21T09:36:36;8.50;;;1.58;;
3941;SDS011;1985;48.592;8.850;2023-11-21T09:39:04;7.70;;;1.50;;
3941;SDS011;1985;48.592;8.850;2023-11-21T09:44:00;9.70;;;1.75;;
3941;SDS011;1985;48.592;8.850;2023-11-21T09:46:32;7.50;;;1.60;;
3941;SDS011;1985;48.592;8.850;2023-11-21T09:48:59;7.60;;;1.50;;
3941;SDS011;1985;48.592;8.850;2023-11-21T09:51:27;8.00;;;1.90;;
3941;SDS011;1985;48.592;8.850;2023-11-21T09:53:58;7.80;;;1.50;;
3941;SDS011;1985;48.592;8.850;2023-11-21T09:56:29;7.80;;;1.70;;
3941;SDS011;1985;48.592;8.850;2023-11-21T09:58:55;8.13;;;1.60;;
3941;SDS011;1985;48.592;8.850;2023-11-21T10:01:22;7.97;;;1.60;;
3941;SDS011;1985;48.592;8.850;2023-11-21T10:03:49;7.38;;;1.40;;
3941;SDS011;1985;48.592;8.850;2023-11-21T10:06:15;8.70;;;1.60;;
3941;SDS011;1985;48.592;8.850;2023-11-21T10:08:42;7.22;;;1.48;;
3941;SDS011;1985;48.592;8.850;2023-11-21T10:11:08;10.20;;;1.80;;
3941;SDS011;1985;48.592;8.850;2023-11-21T10:13:37;9.50;;;1.80;;
3941;SDS011;1985;48.592;8.850;2023-11-21T10:16:05;10.37;;;1.80;;
3941;SDS011;1985;48.592;8.850;2023-11-21T10:18:37;7.65;;;1.70;;
3941;SDS011;1985;48.592;8.850;2023-11-21T10:21:05;11.85;;;2.58;;
3941;SDS011;1985;48.592;8.850;2023-11-21T10:23:32;11.15;;;3.40;;
3941;SDS011;1985;48.592;8.850;2023-11-21T10:25:57;7.40;;;1.40;;
3941;SDS011;1985;48.592;8.850;2023-11-21T10:28:24;7.10;;;1.20;;
3941;SDS011;1985;48.592;8.850;2023-11-21T10:30:50;7.00;;;1.10;;
3941;SDS011;1985;48.592;8.850;2023-11-21T10:33:16;7.70;;;1.00;;
3941;SDS011;1985;48.592;8.850;2023-11-21T10:38:12;8.20;;;1.00;;
3941;SDS011;1985;48.592;8.850;2023-11-21T10:40:39;7.40;;;1.20;;
3941;SDS011;1985;48.592;8.850;2023-11-21T10:43:06;8.63;;;1.10;;
3941;SDS011;1985;48.592;8.850;2023-11-21T10:45:39;8.90;;;1.00;;
3941;SDS011;1985;48.592;8.850;2023-11-21T10:48:06;6.60;;;0.90;;
3941;SDS011;1985;48.592;8.850;2023-11-21T10:50:33;7.25;;;1.40;;
3941;SDS011;1985;48.592;8.850;2023-11-21T10:53:01;6.63;;;1.08;;
3941;SDS011;1985;48.592;8.850;2023-11-21T10:55:28;7.20;;;1.00;;
3941;SDS011;1985;48.592;8.850;2023-11-21T10:57:56;6.50;;;1.10;;
3941;SDS011;1985;48.592;8.850;2023-11-21T11:00:24;7.28;;;1.10;;
3941;SDS011;1985;48.592;8.850;2023-11-21T11:02:52;8.35;;;1.05;;
3941;SDS011;1985;48.592;8.850;2023-11-21T11:05:27;6.70;;;1.10;;
3941;SDS011;1985;48.592;8.850;2023-11-21T11:08:15;8.10;;;1.00;;
3941;SDS011;1985;48.592;8.850;2023-11-21T11:10:44;7.20;;;1.40;;
3941;SDS011;1985;48.592;8.850;2023-11-21T11:13:12;7.80;;;1.50;;
3941;SDS011;1985;48.592;8.850;2023-11-21T11:15:40;8.35;;;1.63;;
3941;SDS011;1985;48.592;8.850;2023-11-21T11:18:06;10.80;;;1.53;;
3941;SDS011;1985;48.592;8.850;2023-11-21T11:20:34;7.25;;;1.40;;
3941;SDS011;1985;48.592;8.850;2023-11-21T11:29:01;7.60;;;1.58;;
3941;SDS011;1985;48.592;8.850;2023-11-21T11:34:23;7.75;;;1.70;;
3941;SDS011;1985;48.592;8.850;2023-11-21T11:37:01;9.18;;;2.47;;
3941;SDS011;1985;48.592;8.850;2023-11-21T11:39:40;8.50;;;2.20;;
3941;SDS011;1985;48.592;8.850;2023-11-21T11:42:16;8.75;;;2.20;;
3941;SDS011;1985;48.592;8.850;2023-11-21T11:47:31;8.77;;;2.23;;
3941;SDS011;1985;48.592;8.850;2023-11-21T11:50:09;8.82;;;2.28;;
3941;SDS011;1985;48.592;8.850;2023-11-21T11:52:45;17.88;;;5.60;;
3941;SDS011;1985;48.592;8.850;2023-11-21T11:55:12;9.75;;;2.50;;
3941;SDS011;1985;48.592;8.850;2023-11-21T11:57:40;9.00;;;2.42;;
3941;SDS011;1985;48.592;8.850;2023-11-21T12:02:35;8.23;;;1.85;;
3941;SDS011;1985;48.592;8.850;2023-11-21T12:05:06;7.15;;;1.40;;
3941;SDS011;1985;48.592;8.850;2023-11-21T12:10:11;15.40;;;3.55;;
3941;SDS011;1985;48.592;8.850;2023-11-21T12:12:42;9.60;;;2.83;;
3941;SDS011;1985;48.592;8.850;2023-11-21T12:15:09;11.77;;;2.92;;
3941;SDS011;1985;48.592;8.850;2023-11-21T12:17:37;9.30;;;2.10;;
3941;SDS011;1985;48.592;8.850;2023-11-21T12:20:03;12.75;;;4.72;;
3941;SDS011;1985;48.592;8.850;2023-11-21T12:22:31;13.75;;;4.03;;
3941;SDS011;1985;48.592;8.850;2023-11-21T12:24:57;8.63;;;2.33;;
3941;SDS011;1985;48.592;8.850;2023-11-21T12:27:23;10.67;;;2.80;;
3941;SDS011;1985;48.592;8.850;2023-11-21T12:29:48;8.60;;;2.20;;
3941;SDS011;1985;48.592;8.850;2023-11-21T12:32:14;8.73;;;2.50;;
3941;SDS011;1985;48.592;8.850;2023-11-21T12:34:42;8.30;;;2.10;;
3941;SDS011;1985;48.592;8.850;2023-11-21T12:37:08;8.23;;;2.10;;
3941;SDS011;1985;48.592;8.850;2023-11-21T12:39:35;8.07;;;2.20;;
3941;SDS011;1985;48.592;8.850;2023-11-21T12:42:01;8.95;;;2.50;;
3941;SDS011;1985;48.592;8.850;2023-11-21T12:44:27;8.63;;;2.43;;
3941;SDS011;1985;48.592;8.850;2023-11-21T12:46:53;10.23;;;2.60;;
3941;SDS011;1985;48.592;8.850;2023-11-21T12:49:18;8.70;;;2.70;;
3941;SDS011;1985;48.592;8.850;2023-11-21T12:51:47;8.40;;;2.20;;
3941;SDS011;1985;48.592;8.850;2023-11-21T12:54:13;7.85;;;1.83;;
3941;SDS011;1985;48.592;8.850;2023-11-21T12:56:58;8.53;;;2.50;;
3941;SDS011;1985;48.592;8.850;2023-11-21T13:02:38;8.43;;;2.60;;
3941;SDS011;1985;48.592;8.850;2023-11-21T13:05:07;10.55;;;3.22;;
3941;SDS011;1985;48.592;8.850;2023-11-21T13:11:14;8.45;;;2.10;;
3941;SDS011;1985;48.592;8.850;2023-11-21T13:13:40;7.85;;;2.03;;
3941;SDS011;1985;48.592;8.850;2023-11-21T13:19:26;9.38;;;2.60;;
3941;SDS011;1985;48.592;8.850;2023-11-21T13:21:52;8.10;;;2.25;;
3941;SDS011;1985;48.592;8.850;2023-11-21T13:27:41;8.77;;;2.60;;
3941;SDS011;1985;48.592;8.850;2023-11-21T13:30:08;8.30;;;2.20;;
3941;SDS011;1985;48.592;8.850;2023-11-21T13:35:58;8.65;;;2.50;;
3941;SDS011;1985;48.592;8.850;2023-11-21T13:45:22;10.18;;;3.40;;
3941;SDS011;1985;48.592;8.850;2023-11-21T13:51:09;10.63;;;3.53;;
3941;SDS011;1985;48.592;8.850;2023-11-21T13:53:42;10.85;;;4.20;;
3941;SDS011;1985;48.592;8.850;2023-11-21T13:59:03;10.68;;;3.28;;
3941;SDS011;1985;48.592;8.850;2023-11-21T14:01:41;10.30;;;3.70;;
3941;SDS011;1985;48.592;8.850;2023-11-21T14:04:19;12.63;;;3.60;;
3941;SDS011;1985;48.592;8.850;2023-11-21T14:06:59;12.88;;;3.63;;
3941;SDS011;1985;48.592;8.850;2023-11-21T14:09:35;11.05;;;3.78;;
3941;SDS011;1985;48.592;8.850;2023-11-21T14:12:08;9.95;;;3.60;;
3941;SDS011;1985;48.592;8.850;2023-11-21T14:14:37;9.60;;;3.00;;
3941;SDS011;1985;48.592;8.850;2023-11-21T14:17:04;8.68;;;2.55;;
3941;SDS011;1985;48.592;8.850;2023-11-21T14:19:32;9.15;;;2.90;;
3941;SDS011;1985;48.592;8.850;2023-11-21T14:21:58;8.63;;;2.42;;
3941;SDS011;1985;48.592;8.850;2023-11-21T14:24:24;9.75;;;2.25;;
3941;SDS011;1985;48.592;8.850;2023-11-21T14:26:50;7.68;;;1.73;;
3941;SDS011;1985;48.592;8.850;2023-11-21T14:29:17;7.30;;;1.70;;
3941;SDS011;1985;48.592;8.850;2023-11-21T14:31:48;6.85;;;1.23;;
3941;SDS011;1985;48.592;8.850;2023-11-21T14:34:15;7.30;;;1.48;;
3941;SDS011;1985;48.592;8.850;2023-11-21T14:36:42;7.63;;;1.60;;
3941;SDS011;1985;48.592;8.850;2023-11-21T14:39:08;6.93;;;1.40;;
3941;SDS011;1985;48.592;8.850;2023-11-21T14:41:45;7.30;;;1.20;;
3941;SDS011;1985;48.592;8.850;2023-11-21T14:44:11;7.37;;;1.20;;
3941;SDS011;1985;48.592;8.850;2023-11-21T14:46:37;6.90;;;1.00;;
3941;SDS011;1985;48.592;8.850;2023-11-21T14:49:05;7.45;;;1.23;;
3941;SDS011;1985;48.592;8.850;2023-11-21T14:51:52;7.18;;;1.23;;
3941;SDS011;1985;48.592;8.850;2023-11-21T14:54:28;7.05;;;1.30;;
3941;SDS011;1985;48.592;8.850;2023-11-21T14:57:20;7.45;;;1.30;;
3941;SDS011;1985;48.592;8.850;2023-11-21T14:59:47;6.70;;;0.97;;
3941;SDS011;1985;48.592;8.850;2023-11-21T15:02:17;6.97;;;1.30;;
3941;SDS011;1985;48.592;8.850;2023-11-21T15:04:47;6.80;;;1.27;;
3941;SDS011;1985;48.592;8.850;2023-11-21T15:07:17;7.13;;;1.50;;
3941;SDS011;1985;48.592;8.850;2023-11-21T15:09:43;7.47;;;1.52;;
3941;SDS011;1985;48.592;8.850;2023-11-21T15:12:10;8.00;;;1.65;;
3941;SDS011;1985;48.592;8.850;2023-11-21T15:14:40;8.30;;;2.10;;
3941;SDS011;1985;48.592;8.850;2023-11-21T15:17:08;11.63;;;3.70;;
3941;SDS011;1985;48.592;8.850;2023-11-21T15:19:34;10.05;;;3.15;;
3941;SDS011;1985;48.592;8.850;2023-11-21T15:22:00;8.30;;;2.30;;
3941;SDS011;1985;48.592;8.850;2023-11-21T15:24:27;8.60;;;2.10;;
3941;SDS011;1985;48.592;8.850;2023-11-21T15:26:53;7.85;;;1.83;;
3941;SDS011;1985;48.592;8.850;2023-11-21T15:29:19;8.60;;;1.90;;
3941;SDS011;1985;48.592;8.850;2023-11-21T15:31:46;7.00;;;1.50;;
3941;SDS011;1985;48.592;8.850;2023-11-21T15:34:13;9.63;;;1.60;;
3941;SDS011;1985;48.592;8.850;2023-11-21T15:36:39;9.68;;;1.48;;
3941;SDS011;1985;48.592;8.850;2023-11-21T15:39:05;8.57;;;1.50;;
3941;SDS011;1985;48.592;8.850;2023-11-21T15:41:32;8.07;;;1.63;;
3941;SDS011;1985;48.592;8.850;2023-11-21T15:43:59;7.70;;;1.40;;
3941;SDS011;1985;48.592;8.850;2023-11-21T15:46:24;7.63;;;1.48;;
3941;SDS011;1985;48.592;8.850;2023-11-21T15:48:50;8.07;;;1.30;;
3941;SDS011;1985;48.592;8.850;2023-11-21T15:51:19;7.60;;;1.38;;
3941;SDS011;1985;48.592;8.850;2023-11-21T15:53:45;7.00;;;1.30;;
3941;SDS011;1985;48.592;8.850;2023-11-21T15:56:11;7.32;;;1.42;;
3941;SDS011;1985;48.592;8.850;2023-11-21T15:58:40;6.80;;;1.25;;
3941;SDS011;1985;48.592;8.850;2023-11-21T16:01:08;7.15;;;1.40;;
3941;SDS011;1985;48.592;8.850;2023-11-21T16:03:35;7.03;;;1.40;;